createdAt,value
2018-12-26T00:01:27.374Z,95903.68
2018-12-26T00:03:55.340Z,95896.67
2018-12-26T00:06:23.205Z,95906.89
2018-12-26T00:08:51.171Z,95910.69
2018-12-26T00:11:19.098Z,95903.42
2018-12-26T00:13:46.956Z,95903.42
2018-12-26T00:16:14.878Z,95907.41
2018-12-26T00:18:42.846Z,95910.48
2018-12-26T00:21:10.889Z,95910.48
2018-12-26T00:23:38.822Z,95922.78
2018-12-26T00:26:06.717Z,95919.70
2018-12-26T00:28:34.576Z,95914.52
2018-12-26T00:31:02.468Z,95912.70
2018-12-26T00:33:30.393Z,95905.46
2018-12-26T00:35:58.234Z,95910.59
2018-12-26T00:38:26.127Z,95918.36
2018-12-26T00:40:54.163Z,95914.88
2018-12-26T00:43:22.045Z,95922.45
2018-12-26T00:45:49.993Z,95921.23
2018-12-26T00:48:17.998Z,95918.24
2018-12-26T00:51:05.201Z,95919.03
2018-12-26T00:53:33.200Z,95919.03
2018-12-26T00:56:01.158Z,95916.41
2018-12-26T00:58:29.032Z,95908.27
2018-12-26T01:00:57.019Z,95902.49
2018-12-26T01:03:24.994Z,95901.48
2018-12-26T01:05:52.899Z,95909.33
2018-12-26T01:08:20.737Z,95904.88
2018-12-26T01:10:48.672Z,95902.06
2018-12-26T01:13:16.683Z,95901.59
2018-12-26T01:15:44.578Z,95886.75
2018-12-26T01:18:12.490Z,95895.19
2018-12-26T01:20:40.403Z,95900.28
2018-12-26T01:23:08.294Z,95898.71
2018-12-26T01:25:36.208Z,95901.08
2018-12-26T01:28:04.124Z,95901.08
2018-12-26T01:30:32.033Z,95899.19
2018-12-26T01:32:59.965Z,95904.92
2018-12-26T01:35:27.891Z,95901.67
2018-12-26T01:37:55.839Z,95890.74
2018-12-26T01:40:23.757Z,95879.36
2018-12-26T01:42:51.678Z,95884.95
2018-12-26T01:45:19.620Z,95879.17
2018-12-26T01:47:47.583Z,95876.05
2018-12-26T01:50:15.612Z,95880.27
2018-12-26T01:52:55.949Z,95867.29
2018-12-26T01:55:35.620Z,95861.83
2018-12-26T01:58:16.089Z,95859.64
2018-12-26T02:00:56.400Z,95860.84
2018-12-26T02:03:24.417Z,95860.84
2018-12-26T02:05:52.296Z,95865.06
2018-12-26T02:08:20.214Z,95869.25
2018-12-26T02:10:48.178Z,95878.45
2018-12-26T02:13:16.027Z,95878.34
2018-12-26T02:15:43.975Z,95883.16
2018-12-26T02:18:11.859Z,95874.05
2018-12-26T02:20:39.718Z,95870.69
2018-12-26T02:23:07.622Z,95865.62
2018-12-26T02:25:35.672Z,95866.44
2018-12-26T02:28:03.619Z,95859.28
2018-12-26T02:30:31.482Z,95859.32
2018-12-26T02:32:59.371Z,95859.32
2018-12-26T02:35:27.320Z,95860.56
2018-12-26T02:37:55.165Z,95831.69
2018-12-26T02:40:23.093Z,95869.89
2018-12-26T02:43:10.234Z,95857.20
2018-12-26T02:45:38.281Z,95857.20
2018-12-26T02:48:06.174Z,95857.03
2018-12-26T02:50:34.043Z,95860.98
2018-12-26T02:53:02.107Z,95861.87
2018-12-26T02:55:30.047Z,95851.69
2018-12-26T02:57:57.977Z,95850.28
2018-12-26T03:00:25.933Z,95851.92
2018-12-26T03:02:53.871Z,95862.55
2018-12-26T03:05:21.807Z,95877.36
2018-12-26T03:07:49.684Z,95858.19
2018-12-26T03:10:17.578Z,95851.80
2018-12-26T03:12:45.540Z,95860.28
2018-12-26T03:15:13.393Z,95852.39
2018-12-26T03:17:41.307Z,95894.52
2018-12-26T03:20:09.241Z,95854.63
2018-12-26T03:22:56.470Z,95859.44
2018-12-26T03:25:24.534Z,95859.44
2018-12-26T03:27:52.591Z,95859.20
2018-12-26T03:30:20.525Z,95861.39
2018-12-26T03:32:48.496Z,95869.30
2018-12-26T03:35:16.403Z,95865.31
2018-12-26T03:37:44.431Z,95876.83
2018-12-26T03:40:12.485Z,95882.23
2018-12-26T03:43:20.792Z,95885.41
2018-12-26T03:45:59.859Z,95881.00
2018-12-26T03:51:29.081Z,95882.23
2018-12-26T03:53:57.179Z,95878.99
2018-12-26T03:56:46.172Z,95860.67
2018-12-26T03:59:14.199Z,95876.02
2018-12-26T04:01:42.107Z,95893.50
2018-12-26T04:04:29.271Z,95888.49
2018-12-26T04:06:57.519Z,95888.49
2018-12-26T04:09:25.504Z,95896.31
2018-12-26T04:11:53.571Z,95892.67
2018-12-26T04:14:21.610Z,95904.06
2018-12-26T04:16:49.802Z,95903.31
2018-12-26T04:19:17.780Z,95909.48
2018-12-26T04:21:45.743Z,95908.73
2018-12-26T04:24:13.841Z,95920.19
2018-12-26T04:26:41.885Z,95897.17
2018-12-26T04:29:09.820Z,95890.64
2018-12-26T04:31:57.028Z,95908.07
2018-12-26T04:34:25.134Z,95916.05
2018-12-26T04:36:53.006Z,95899.95
2018-12-26T04:39:20.974Z,95907.72
2018-12-26T04:41:48.873Z,95907.72
2018-12-26T04:44:16.823Z,95915.30
2018-12-26T04:46:44.752Z,95910.77
2018-12-26T04:49:12.757Z,95910.77
2018-12-26T04:51:40.723Z,95907.02
2018-12-26T04:54:08.810Z,95907.02
2018-12-26T04:56:37.052Z,95905.97
2018-12-26T04:59:04.989Z,95905.97
2018-12-26T05:01:32.903Z,95898.81
2018-12-26T05:04:00.891Z,95904.95
2018-12-26T05:06:28.811Z,95920.50
2018-12-26T05:08:56.826Z,95924.09
2018-12-26T05:11:24.772Z,95915.38
2018-12-26T05:13:52.720Z,95909.16
2018-12-26T05:16:20.730Z,95913.55
2018-12-26T05:18:48.747Z,95915.12
2018-12-26T05:21:16.765Z,95920.92
2018-12-26T05:24:03.955Z,95934.06
2018-12-26T05:26:31.919Z,95934.06
2018-12-26T05:28:59.823Z,95945.91
2018-12-26T05:31:27.776Z,95943.38
2018-12-26T05:33:55.706Z,95943.38
2018-12-26T05:36:23.677Z,95952.39
2018-12-26T05:38:51.615Z,95946.80
2018-12-26T05:41:19.470Z,95950.44
2018-12-26T05:43:47.355Z,95964.28
2018-12-26T05:46:15.279Z,95967.14
2018-12-26T05:48:43.166Z,95964.71
2018-12-26T05:51:11.076Z,95971.13
2018-12-26T05:53:39.035Z,95976.80
2018-12-26T05:56:07.074Z,95972.91
2018-12-26T05:58:35.012Z,95975.45
2018-12-26T06:01:02.949Z,95980.66
2018-12-26T06:03:30.922Z,95973.11
2018-12-26T06:05:58.872Z,95978.00
2018-12-26T06:08:26.802Z,95973.92
2018-12-26T06:10:54.632Z,95980.38
2018-12-26T06:13:22.544Z,95977.72
2018-12-26T06:15:50.577Z,95991.22
2018-12-26T06:18:18.380Z,95989.86
2018-12-26T06:20:46.294Z,95998.08
2018-12-26T06:23:15.128Z,96000.65
2018-12-26T06:25:43.075Z,96004.64
2018-12-26T06:28:11.329Z,96004.12
2018-12-26T06:30:39.395Z,96001.31
2018-12-26T06:33:07.528Z,96004.22
2018-12-26T06:35:35.488Z,96010.46
2018-12-26T06:38:03.488Z,96010.14
2018-12-26T06:40:31.422Z,96013.38
2018-12-26T06:42:59.422Z,96012.42
2018-12-26T06:45:27.375Z,96012.83
2018-12-26T06:47:55.254Z,96019.47
2018-12-26T06:50:23.199Z,96017.93
2018-12-26T06:52:51.402Z,96019.08
2018-12-26T06:55:19.401Z,96024.17
2018-12-26T06:57:47.386Z,96021.44
2018-12-26T07:00:15.464Z,96026.70
2018-12-26T07:02:43.361Z,96024.11
2018-12-26T07:05:11.229Z,96037.20
2018-12-26T07:07:39.248Z,96032.52
2018-12-26T07:10:07.338Z,96031.05
2018-12-26T07:12:35.169Z,96037.03
2018-12-26T07:15:03.197Z,96042.09
2018-12-26T07:17:31.109Z,96032.18
2018-12-26T07:19:59.011Z,96042.91
2018-12-26T07:22:26.973Z,96038.37
2018-12-26T07:24:54.974Z,96039.11
2018-12-26T07:27:22.992Z,96037.13
2018-12-26T07:29:50.902Z,96038.24
2018-12-26T07:32:18.837Z,96035.08
2018-12-26T07:34:46.779Z,96028.86
2018-12-26T07:37:14.745Z,96028.09
2018-12-26T07:39:42.596Z,96030.47
2018-12-26T07:42:10.536Z,96041.55
2018-12-26T07:44:38.541Z,96037.45
2018-12-26T07:47:06.441Z,96041.43
2018-12-26T07:49:34.348Z,96046.36
2018-12-26T07:52:02.260Z,96048.22
2018-12-26T07:54:30.181Z,96035.66
2018-12-26T07:56:58.129Z,96042.57
2018-12-26T07:59:26.145Z,96045.69
2018-12-26T08:01:54.070Z,96043.22
2018-12-26T08:04:22.007Z,96045.31
2018-12-26T08:06:49.947Z,96044.52
2018-12-26T08:09:17.829Z,96038.83
2018-12-26T08:11:45.750Z,96047.03
2018-12-26T08:14:13.655Z,96050.64
2018-12-26T08:16:41.553Z,96040.00
2018-12-26T08:19:09.466Z,96044.69
2018-12-26T08:21:37.397Z,96043.41
2018-12-26T08:24:05.260Z,96052.66
2018-12-26T08:26:33.282Z,96040.97
2018-12-26T08:29:01.314Z,96044.61
2018-12-26T08:31:29.328Z,96044.61
2018-12-26T08:33:57.218Z,96035.11
2018-12-26T08:36:25.186Z,96042.48
2018-12-26T08:38:53.159Z,96034.05
2018-12-26T08:41:21.424Z,96039.84
2018-12-26T08:43:49.368Z,96037.56
2018-12-26T08:46:17.329Z,96036.95
2018-12-26T08:48:45.428Z,96042.58
2018-12-26T08:51:13.463Z,96025.06
2018-12-26T08:53:42.357Z,96027.39
2018-12-26T08:56:32.401Z,96027.41
2018-12-26T08:59:00.495Z,96028.74
2018-12-26T09:01:28.616Z,96027.34
2018-12-26T09:04:17.737Z,96020.80
2018-12-26T09:06:50.392Z,96022.43
2018-12-26T09:09:21.067Z,96017.77
2018-12-26T09:11:55.524Z,96029.50
2018-12-26T09:14:24.898Z,96026.67
2018-12-26T09:16:57.254Z,96011.38
2018-12-26T09:19:25.933Z,96018.65
2018-12-26T09:21:54.443Z,96019.22
2018-12-26T09:24:26.255Z,96007.92
2018-12-26T09:26:57.346Z,96003.91
2018-12-26T09:29:25.384Z,96003.55
2018-12-26T09:33:00.918Z,95988.14
2018-12-26T09:35:28.490Z,95991.67
2018-12-26T09:37:56.168Z,95987.26
2018-12-26T09:40:23.661Z,95985.38
2018-12-26T09:42:51.112Z,95982.12
2018-12-26T09:45:18.557Z,95976.77
2018-12-26T09:47:46.067Z,95976.77
2018-12-26T09:50:13.669Z,95976.77
2018-12-26T09:52:41.242Z,95958.60
2018-12-26T09:55:08.725Z,95962.03
2018-12-26T09:57:36.180Z,95945.80
2018-12-26T10:00:15.137Z,95953.05
2018-12-26T10:02:42.656Z,95947.50
2018-12-26T10:05:10.174Z,95940.44
2018-12-26T10:07:38.054Z,95936.80
2018-12-26T10:10:06.489Z,95939.46
2018-12-26T10:12:34.127Z,95930.66
2018-12-26T10:15:01.506Z,95923.98
2018-12-26T10:17:35.749Z,95935.27
2018-12-26T10:20:24.712Z,95914.61
2018-12-26T10:22:52.393Z,95916.52
2018-12-26T10:25:20.119Z,95903.73
2018-12-26T10:33:06.672Z,95885.95
2018-12-26T10:35:34.127Z,95887.47
2018-12-26T10:38:01.713Z,95894.94
2018-12-26T10:40:29.180Z,95882.89
2018-12-26T10:42:56.591Z,95898.93
2018-12-26T10:45:24.081Z,95904.27
2018-12-26T10:47:52.121Z,95893.77
2018-12-26T10:50:19.494Z,95880.57
2018-12-26T10:52:46.964Z,95883.64
2018-12-26T10:55:14.404Z,95883.77
2018-12-26T10:57:42.138Z,95889.56
2018-12-26T11:00:11.700Z,95893.97
2018-12-26T11:02:39.273Z,95881.75
2018-12-26T11:05:07.268Z,95897.15
2018-12-26T11:07:34.780Z,95888.17
2018-12-26T11:10:02.297Z,95895.44
2018-12-26T11:12:29.823Z,95893.66
2018-12-26T11:14:57.477Z,95891.73
2018-12-26T11:17:25.084Z,95876.28
2018-12-26T11:19:54.985Z,95884.46
2018-12-26T11:22:22.460Z,95872.04
2018-12-26T11:24:49.993Z,95877.42
2018-12-26T11:27:17.578Z,95870.39
2018-12-26T11:29:45.014Z,95861.20
2018-12-26T11:32:12.497Z,95864.47
2018-12-26T11:34:40.085Z,95856.39
2018-12-26T11:37:07.615Z,95863.25
2018-12-26T11:39:35.234Z,95858.38
2018-12-26T11:42:02.756Z,95857.87
2018-12-26T11:44:30.133Z,95855.03
2018-12-26T11:46:57.646Z,95852.42
2018-12-26T11:49:25.109Z,95840.57
2018-12-26T11:51:52.514Z,95847.13
2018-12-26T11:54:19.951Z,95851.06
2018-12-26T11:56:47.449Z,95841.15
2018-12-26T11:59:14.827Z,95873.09
2018-12-26T12:01:42.419Z,95855.29
2018-12-26T12:04:10.129Z,95856.66
2018-12-26T12:06:37.587Z,95859.16
2018-12-26T12:09:06.552Z,95859.48
2018-12-26T12:11:34.214Z,95860.98
2018-12-26T12:14:01.822Z,95855.23
2018-12-26T12:16:29.914Z,95858.70
2018-12-26T12:18:57.689Z,95857.75
2018-12-26T12:21:25.180Z,95863.11
2018-12-26T12:23:52.724Z,95861.34
2018-12-26T12:26:20.205Z,95872.27
2018-12-26T12:28:47.966Z,95869.02
2018-12-26T12:33:55.485Z,95863.45
2018-12-26T12:36:23.021Z,95865.91
2018-12-26T12:38:50.668Z,95861.21
2018-12-26T12:41:18.377Z,95859.44
2018-12-26T12:43:45.848Z,95853.46
2018-12-26T12:46:13.464Z,95864.80
2018-12-26T12:48:40.971Z,95857.91
2018-12-26T12:51:08.489Z,95841.66
2018-12-26T12:53:36.227Z,95838.86
2018-12-26T12:56:11.770Z,95846.10
2018-12-26T12:58:33.420Z,95698.38
2018-12-26T13:01:01.147Z,95852.25
2018-12-26T13:03:28.792Z,95851.70
2018-12-26T13:05:56.409Z,95874.24
2018-12-26T13:08:23.941Z,95860.88
2018-12-26T13:10:51.473Z,95862.98
2018-12-26T13:13:18.952Z,95863.74
2018-12-26T13:15:46.454Z,95875.41
2018-12-26T13:18:14.049Z,95863.70
2018-12-26T13:20:41.612Z,95856.88
2018-12-26T13:23:09.117Z,95863.70
2018-12-26T13:25:36.593Z,95869.08
2018-12-26T13:28:04.213Z,95861.66
2018-12-26T13:30:33.005Z,95856.46
2018-12-26T13:33:00.489Z,95865.64
2018-12-26T13:35:27.960Z,95861.80
2018-12-26T13:37:55.990Z,95858.97
2018-12-26T13:40:23.556Z,95860.52
2018-12-26T13:42:51.034Z,95854.96
2018-12-26T13:45:18.511Z,95856.14
2018-12-26T13:47:46.094Z,95851.73
2018-12-26T13:50:13.463Z,95845.80
2018-12-26T13:52:41.047Z,95845.05
2018-12-26T13:55:08.554Z,95849.45
2018-12-26T13:57:36.087Z,95847.72
2018-12-26T14:02:44.920Z,95840.84
2018-12-26T14:05:12.351Z,95838.16
2018-12-26T14:07:39.922Z,95841.02
2018-12-26T14:10:09.118Z,95840.45
2018-12-26T14:12:36.573Z,95835.09
2018-12-26T14:15:44.653Z,95832.82
2018-12-26T14:18:12.200Z,95826.72
2018-12-26T14:20:39.712Z,95824.05
2018-12-26T14:23:07.169Z,95833.02
2018-12-26T14:25:34.655Z,95835.48
2018-12-26T14:28:02.192Z,95821.55
2018-12-26T14:30:29.648Z,95811.25
2018-12-26T14:32:57.113Z,95830.14
2018-12-26T14:35:24.611Z,95814.10
2018-12-26T14:37:52.073Z,95814.86
2018-12-26T14:40:19.504Z,95826.50
2018-12-26T14:42:46.968Z,95816.78
2018-12-26T14:45:14.413Z,95813.52
2018-12-26T14:47:41.974Z,95809.89
2018-12-26T14:50:09.520Z,95811.80
2018-12-26T14:52:37.006Z,95811.78
2018-12-26T14:55:04.713Z,95812.38
2018-12-26T14:57:32.198Z,95806.84
2018-12-26T14:59:59.842Z,95811.79
2018-12-26T15:02:27.692Z,95803.40
2018-12-26T15:04:55.341Z,95807.98
2018-12-26T15:07:23.287Z,95797.47
2018-12-26T15:09:50.869Z,95802.64
2018-12-26T15:12:18.316Z,95800.33
2018-12-26T15:14:45.852Z,95792.89
2018-12-26T15:17:13.254Z,95799.75
2018-12-26T15:19:40.856Z,95785.63
2018-12-26T15:22:08.416Z,95795.00
2018-12-26T15:24:35.930Z,95784.29
2018-12-26T15:27:03.384Z,95791.19
2018-12-26T15:29:30.834Z,95787.34
2018-12-26T15:31:58.316Z,95790.41
2018-12-26T15:34:25.784Z,95783.15
2018-12-26T15:36:53.305Z,95777.59
2018-12-26T15:39:20.969Z,95778.18
2018-12-26T15:41:48.447Z,95774.19
2018-12-26T15:44:16.044Z,95773.98
2018-12-26T15:46:43.574Z,95788.88
2018-12-26T15:49:10.984Z,95783.14
2018-12-26T15:51:38.523Z,95779.70
2018-12-26T15:54:06.037Z,95779.33
2018-12-26T15:56:58.720Z,95788.52
2018-12-26T16:02:05.763Z,95775.12
2018-12-26T16:04:33.253Z,95769.97
2018-12-26T16:07:01.716Z,95780.27
2018-12-26T16:09:29.403Z,95767.12
2018-12-26T16:11:56.900Z,95757.16
2018-12-26T16:14:24.312Z,95749.34
2018-12-26T16:16:51.736Z,95749.91
2018-12-26T16:19:19.325Z,95755.09
2018-12-26T16:21:46.794Z,95751.08
2018-12-26T16:24:14.395Z,95755.65
2018-12-26T16:26:41.986Z,95749.36
2018-12-26T16:29:09.470Z,95753.55
2018-12-26T16:31:36.966Z,95755.65
2018-12-26T16:34:04.501Z,95759.86
2018-12-26T16:36:32.028Z,95756.42
2018-12-26T16:38:59.502Z,95757.17
2018-12-26T16:41:26.957Z,95764.98
2018-12-26T16:43:54.390Z,95764.02
2018-12-26T16:46:21.984Z,95763.09
2018-12-26T16:48:49.451Z,95765.17
2018-12-26T16:51:16.931Z,95766.14
2018-12-26T16:53:44.423Z,95762.69
2018-12-26T16:56:11.934Z,95763.02
2018-12-26T16:58:39.465Z,95760.55
2018-12-26T17:01:06.953Z,95768.61
2018-12-26T17:03:34.561Z,95764.42
2018-12-26T17:06:02.038Z,95753.73
2018-12-26T17:08:29.599Z,95748.14
2018-12-26T17:10:57.132Z,95756.94
2018-12-26T17:13:24.654Z,95751.55
2018-12-26T17:15:52.082Z,95755.20
2018-12-26T17:18:19.594Z,95754.60
2018-12-26T17:20:47.027Z,95767.80
2018-12-26T17:23:14.470Z,95761.31
2018-12-26T17:25:42.346Z,95760.17
2018-12-26T17:28:09.889Z,95759.23
2018-12-26T17:30:37.419Z,95751.80
2018-12-26T17:33:04.922Z,95757.14
2018-12-26T17:35:32.301Z,95749.09
2018-12-26T17:37:59.917Z,95754.42
2018-12-26T17:40:27.378Z,95760.52
2018-12-26T17:42:54.849Z,95749.86
2018-12-26T17:45:23.251Z,95763.45
2018-12-26T17:47:50.810Z,95759.62
2018-12-26T17:50:59.252Z,95762.08
2018-12-26T17:53:49.039Z,95759.06
2018-12-26T17:56:28.237Z,95753.72
2018-12-26T17:59:11.238Z,95752.94
2018-12-26T18:01:47.938Z,95748.92
2018-12-26T18:04:15.402Z,95757.33
2018-12-26T18:06:42.959Z,95750.25
2018-12-26T18:09:10.448Z,95762.30
2018-12-26T18:11:37.937Z,95745.91
2018-12-26T18:14:05.674Z,95745.91
2018-12-26T18:16:33.115Z,95749.30
2018-12-26T18:19:00.594Z,95746.64
2018-12-26T18:21:28.088Z,95742.22
2018-12-26T18:23:55.617Z,95740.09
2018-12-26T18:26:23.589Z,95747.77
2018-12-26T18:28:51.044Z,95740.31
2018-12-26T18:31:21.944Z,95747.19
2018-12-26T18:33:47.872Z,95743.16
2018-12-26T18:36:15.364Z,95752.55
2018-12-26T18:38:42.817Z,95757.69
2018-12-26T18:41:10.355Z,95745.28
2018-12-26T18:43:37.900Z,95745.88
2018-12-26T18:46:05.337Z,95741.45
2018-12-26T18:48:33.045Z,95748.75
2018-12-26T18:51:00.523Z,95745.69
2018-12-26T18:53:28.265Z,95756.75
2018-12-26T18:55:55.753Z,95742.24
2018-12-26T18:58:23.255Z,95734.41
2018-12-26T19:00:50.799Z,95734.22
2018-12-26T19:03:18.316Z,95740.11
2018-12-26T19:05:45.891Z,95739.00
2018-12-26T19:08:13.506Z,95745.48
2018-12-26T19:10:41.132Z,95763.11
2018-12-26T19:13:08.602Z,95733.45
2018-12-26T19:15:36.984Z,95740.69
2018-12-26T19:18:04.523Z,95738.19
2018-12-26T19:20:31.971Z,95735.52
2018-12-26T19:22:59.724Z,95743.98
2018-12-26T19:25:27.441Z,95734.41
2018-12-26T19:27:55.075Z,95740.69
2018-12-26T19:30:22.553Z,95758.09
2018-12-26T19:32:50.138Z,95735.73
2018-12-26T19:35:17.861Z,95738.25
2018-12-26T19:37:45.373Z,95741.69
2018-12-26T19:40:12.876Z,95752.32
2018-12-26T19:42:40.329Z,95737.64
2018-12-26T19:45:08.571Z,95728.03
2018-12-26T19:47:36.098Z,95743.01
2018-12-26T19:50:05.246Z,95738.03
2018-12-26T19:52:33.448Z,95734.41
2018-12-26T19:55:00.914Z,95728.87
2018-12-26T19:57:28.479Z,95733.80
2018-12-26T19:59:55.896Z,95734.94
2018-12-26T20:02:23.625Z,95734.80
2018-12-26T20:04:52.968Z,95742.95
2018-12-26T20:07:20.537Z,95731.92
2018-12-26T20:09:48.241Z,95730.98
2018-12-26T20:12:15.708Z,95721.98
2018-12-26T20:14:43.189Z,95728.70
2018-12-26T20:17:10.682Z,95728.47
2018-12-26T20:19:38.129Z,95732.27
2018-12-26T20:22:05.605Z,95721.98
2018-12-26T20:24:33.127Z,95717.35
2018-12-26T20:27:00.571Z,95723.09
2018-12-26T20:29:28.273Z,95732.82
2018-12-26T20:31:57.035Z,95727.11
2018-12-26T20:34:25.462Z,95729.78
2018-12-26T20:36:52.933Z,95728.47
2018-12-26T20:39:20.390Z,95727.29
2018-12-26T20:41:47.853Z,95736.72
2018-12-26T20:44:15.362Z,95731.92
2018-12-26T20:46:42.847Z,95727.91
2018-12-26T20:49:10.378Z,95730.59
2018-12-26T20:51:37.809Z,95721.98
2018-12-26T20:54:05.305Z,95728.45
2018-12-26T20:56:32.762Z,95719.70
2018-12-26T20:59:00.305Z,95723.33
2018-12-26T21:01:27.802Z,95726.98
2018-12-26T21:03:55.332Z,95724.30
2018-12-26T21:06:22.824Z,95717.72
2018-12-26T21:08:50.306Z,95723.08
2018-12-26T21:11:17.919Z,95722.16
2018-12-26T21:13:45.431Z,95719.44
2018-12-26T21:16:12.845Z,95723.13
2018-12-26T21:18:40.330Z,95725.44
2018-12-26T21:21:07.787Z,95717.20
2018-12-26T21:23:35.320Z,95718.16
2018-12-26T21:26:02.706Z,95730.41
2018-12-26T21:28:30.230Z,95712.42
2018-12-26T21:30:57.844Z,95710.52
2018-12-26T21:33:25.446Z,95712.45
2018-12-26T21:36:04.241Z,95717.95
2018-12-26T21:38:31.847Z,95719.33
2018-12-26T21:40:59.308Z,95723.89
2018-12-26T21:43:26.783Z,95728.33
2018-12-26T21:45:54.232Z,95722.37
2018-12-26T21:48:21.622Z,95723.52
2018-12-26T21:50:49.089Z,95727.77
2018-12-26T21:53:16.866Z,95717.22
2018-12-26T21:55:44.288Z,95714.70
2018-12-26T21:58:11.714Z,95718.89
2018-12-26T22:00:39.272Z,95718.16
2018-12-26T22:03:06.756Z,95717.02
2018-12-26T22:05:34.105Z,95715.88
2018-12-26T22:08:01.594Z,95713.98
2018-12-26T22:10:29.049Z,95708.21
2018-12-26T22:12:56.490Z,95722.17
2018-12-26T22:15:23.929Z,95718.13
2018-12-26T22:17:51.417Z,95711.41
2018-12-26T22:20:18.859Z,95717.78
2018-12-26T22:22:46.299Z,95716.60
2018-12-26T22:25:13.768Z,95717.59
2018-12-26T22:27:41.219Z,95701.55
2018-12-26T22:30:10.278Z,95705.88
2018-12-26T22:32:37.821Z,95707.25
2018-12-26T22:35:05.328Z,95713.19
2018-12-26T22:37:32.794Z,95707.88
2018-12-26T22:42:40.781Z,95707.66
2018-12-26T22:45:08.530Z,95711.32
2018-12-26T22:47:36.138Z,95708.61
2018-12-26T22:50:04.645Z,95694.65
2018-12-26T22:52:32.200Z,95705.20
2018-12-26T22:54:59.593Z,95703.45
2018-12-26T22:57:27.276Z,95700.63
2018-12-26T23:02:38.944Z,95710.84
2018-12-26T23:05:06.088Z,95703.26
2018-12-26T23:07:33.567Z,95706.65
2018-12-26T23:10:01.148Z,95693.11
2018-12-26T23:12:28.556Z,95697.53
2018-12-26T23:14:55.988Z,95703.24
2018-12-26T23:17:23.472Z,95692.70
2018-12-26T23:19:50.891Z,95693.88
2018-12-26T23:22:18.351Z,95690.00
2018-12-26T23:24:45.804Z,95687.69
2018-12-26T23:27:13.341Z,95689.80
2018-12-26T23:29:40.838Z,95698.75
2018-12-26T23:32:08.241Z,95700.27
2018-12-26T23:34:35.746Z,95696.46
2018-12-26T23:37:03.232Z,95697.41
2018-12-26T23:39:30.626Z,95698.94
2018-12-26T23:41:58.136Z,95687.94
2018-12-26T23:44:25.721Z,95688.07
2018-12-26T23:46:53.275Z,95701.79
2018-12-26T23:49:20.730Z,95701.50
2018-12-26T23:51:48.231Z,95693.68
2018-12-26T23:54:15.700Z,95690.98
2018-12-26T23:56:43.288Z,95695.25
2018-12-26T23:59:10.677Z,95692.11
